createdAt,value
2023-05-23T00:01:03.594Z,97948.34
2023-05-23T00:03:49.418Z,97941.91
2023-05-23T00:06:35.241Z,97946.78
2023-05-23T00:09:21.566Z,97958.91
2023-05-23T00:12:07.475Z,97857.31
2023-05-23T00:14:52.930Z,97923.13
2023-05-23T00:17:38.899Z,98018.19
2023-05-23T00:20:24.258Z,97964.75
2023-05-23T00:23:10.941Z,97889.44
2023-05-23T00:25:56.310Z,98020.19
2023-05-23T00:28:42.264Z,97794.84
2023-05-23T00:31:28.165Z,97863.31
2023-05-23T00:34:16.920Z,97889.75
2023-05-23T00:37:02.683Z,97973.06
2023-05-23T00:39:49.199Z,98009.22
2023-05-23T00:42:34.816Z,97927.41
2023-05-23T00:45:20.939Z,97990.03
2023-05-23T00:48:07.763Z,98049.47
2023-05-23T00:50:54.320Z,97859.72
2023-05-23T00:53:40.004Z,97944.44
2023-05-23T00:56:25.790Z,97931.88
2023-05-23T00:59:12.213Z,98017.75
2023-05-23T01:02:00.899Z,98017.63
2023-05-23T01:04:46.705Z,97977.91
2023-05-23T01:07:32.082Z,97846.38
2023-05-23T01:10:21.376Z,98057.28
2023-05-23T01:13:07.042Z,98054.78
2023-05-23T01:16:11.138Z,98016.03
2023-05-23T01:19:03.667Z,98053.72
2023-05-23T01:21:54.054Z,97967.28
2023-05-23T01:24:54.403Z,97961.75
2023-05-23T01:27:54.945Z,98060.41
2023-05-23T01:30:42.076Z,97977.38
2023-05-23T01:33:28.753Z,97734.94
2023-05-23T01:36:14.602Z,97737.34
2023-05-23T01:38:59.732Z,98041.13
2023-05-23T01:41:46.704Z,97921.59
2023-05-23T01:44:34.663Z,98053.72
2023-05-23T01:47:22.050Z,97831.38
2023-05-23T01:50:09.034Z,97883.09
2023-05-23T01:52:55.506Z,97866.78
2023-05-23T01:55:42.419Z,98058.09
2023-05-23T01:58:27.692Z,97959.72
2023-05-23T02:01:13.986Z,97961.09
2023-05-23T02:03:59.530Z,98066.69
2023-05-23T02:06:45.061Z,97950.91
2023-05-23T02:09:31.787Z,98013.19
2023-05-23T02:12:17.471Z,98027.31
2023-05-23T02:15:03.449Z,97920.25
2023-05-23T02:17:49.341Z,98044.19
2023-05-23T02:20:34.828Z,97824.44
2023-05-23T02:23:20.384Z,98077.34
2023-05-23T02:26:05.745Z,97964.88
2023-05-23T02:28:51.304Z,98049.09
2023-05-23T02:31:36.885Z,98043.38
2023-05-23T02:34:22.459Z,97857.53
2023-05-23T02:37:08.104Z,97953.59
2023-05-23T02:39:56.283Z,98058.91
2023-05-23T02:42:41.464Z,97976.97
2023-05-23T02:45:26.979Z,98012.22
2023-05-23T02:48:12.280Z,98076.69
2023-05-23T02:50:57.924Z,98080.25
2023-05-23T02:53:43.475Z,98077.72
2023-05-23T02:56:29.211Z,98053.31
2023-05-23T02:59:14.735Z,97829.78
2023-05-23T03:02:00.640Z,98046.22
2023-05-23T03:04:45.898Z,97990.09
2023-05-23T03:07:31.283Z,97923.38
2023-05-23T03:10:17.046Z,98060.41
2023-05-23T03:13:03.140Z,98028.06
2023-05-23T03:15:48.530Z,98085.81
2023-05-23T03:18:33.647Z,98045.94
2023-05-23T03:21:20.760Z,97960.81
2023-05-23T03:24:06.670Z,98022.78
2023-05-23T03:26:52.248Z,97936.59
2023-05-23T03:29:37.995Z,97992.66
2023-05-23T03:32:23.676Z,98048.84
2023-05-23T03:35:09.754Z,98085.72
2023-05-23T03:37:55.720Z,98069.50
2023-05-23T03:40:40.990Z,98041.31
2023-05-23T03:43:26.391Z,97935.28
2023-05-23T03:46:12.087Z,97850.69
2023-05-23T03:48:57.702Z,98008.00
2023-05-23T03:51:43.384Z,97944.44
2023-05-23T03:54:30.220Z,98066.16
2023-05-23T03:57:15.784Z,97983.22
2023-05-23T04:00:03.749Z,98057.78
2023-05-23T04:02:49.566Z,98129.69
2023-05-23T04:05:36.955Z,98124.38
2023-05-23T04:08:22.240Z,98077.50
2023-05-23T04:11:09.462Z,98077.69
2023-05-23T04:13:56.564Z,97939.66
2023-05-23T04:16:42.193Z,97903.25
2023-05-23T04:19:27.879Z,97484.72
2023-05-23T04:22:13.520Z,97938.38
2023-05-23T04:24:58.788Z,98114.91
2023-05-23T04:27:47.510Z,98104.66
2023-05-23T04:30:33.233Z,97965.09
2023-05-23T04:33:18.722Z,97974.50
2023-05-23T04:36:05.207Z,98117.41
2023-05-23T04:38:51.594Z,98143.59
2023-05-23T04:41:38.909Z,97809.44
2023-05-23T04:44:57.584Z,97945.03
2023-05-23T04:48:01.716Z,98055.44
2023-05-23T04:50:57.405Z,97920.06
2023-05-23T04:53:42.932Z,98028.72
2023-05-23T04:56:29.857Z,98035.91
2023-05-23T04:59:15.774Z,98062.72
2023-05-23T05:02:01.462Z,97856.22
2023-05-23T05:04:47.508Z,97936.50
2023-05-23T05:07:33.498Z,98110.84
2023-05-23T05:10:20.542Z,98162.13
2023-05-23T05:13:06.105Z,98073.09
2023-05-23T05:16:01.108Z,97899.06
2023-05-23T05:18:48.712Z,98097.06
2023-05-23T05:21:34.168Z,98134.09
2023-05-23T05:24:19.601Z,98103.69
2023-05-23T05:27:05.957Z,98007.81
2023-05-23T05:29:51.369Z,98046.81
2023-05-23T05:32:36.581Z,97945.16
2023-05-23T05:35:22.305Z,98124.41
2023-05-23T05:38:07.845Z,98113.19
2023-05-23T05:40:54.130Z,98154.16
2023-05-23T05:43:43.270Z,98091.59
2023-05-23T05:46:28.918Z,98093.66
2023-05-23T05:49:15.067Z,98081.53
2023-05-23T05:52:00.819Z,98088.03
2023-05-23T05:54:46.081Z,98086.84
2023-05-23T05:57:31.828Z,98134.47
2023-05-23T06:00:18.697Z,98072.09
2023-05-23T06:03:04.047Z,97978.16
2023-05-23T06:05:56.438Z,98104.56
2023-05-23T06:08:42.363Z,98104.75
2023-05-23T06:11:30.785Z,98069.28
2023-05-23T06:14:16.341Z,98088.78
2023-05-23T06:17:05.080Z,98165.09
2023-05-23T06:19:50.436Z,98121.88
2023-05-23T06:22:36.063Z,98131.13
2023-05-23T06:25:22.765Z,98087.50
2023-05-23T06:28:08.980Z,98067.50
2023-05-23T06:30:54.338Z,98101.13
2023-05-23T06:33:39.818Z,97934.72
2023-05-23T06:36:25.306Z,98174.50
2023-05-23T06:39:10.698Z,97935.50
2023-05-23T06:41:56.373Z,98081.13
2023-05-23T06:44:41.669Z,98151.31
2023-05-23T06:47:29.584Z,98049.06
2023-05-23T06:50:14.905Z,97958.69
2023-05-23T06:53:00.610Z,97959.28
2023-05-23T06:55:46.077Z,98061.88
2023-05-23T06:58:33.554Z,98165.44
2023-05-23T07:01:20.417Z,98042.72
2023-05-23T07:04:07.358Z,97941.91
2023-05-23T07:06:53.730Z,98201.19
2023-05-23T07:09:39.963Z,97943.25
2023-05-23T07:12:30.566Z,98165.59
2023-05-23T07:15:17.510Z,98201.88
2023-05-23T07:18:13.407Z,98140.38
2023-05-23T07:20:59.367Z,98192.69
2023-05-23T07:23:45.203Z,98150.56
2023-05-23T07:26:31.155Z,97962.94
2023-05-23T07:29:16.561Z,97854.41
2023-05-23T07:32:04.446Z,98037.50
2023-05-23T07:34:50.002Z,98083.56
2023-05-23T07:37:35.888Z,97935.31
2023-05-23T07:40:22.274Z,98207.00
2023-05-23T07:43:07.611Z,98024.00
2023-05-23T07:45:53.169Z,98092.97
2023-05-23T07:48:38.977Z,98169.81
2023-05-23T07:51:24.479Z,97922.84
2023-05-23T07:54:11.258Z,98185.25
2023-05-23T07:56:59.366Z,98168.56
2023-05-23T07:59:45.306Z,98187.66
2023-05-23T08:02:31.059Z,98111.81
2023-05-23T08:05:16.650Z,98122.31
2023-05-23T08:08:02.154Z,98020.09
2023-05-23T08:10:47.727Z,98189.63
2023-05-23T08:13:40.573Z,98155.25
2023-05-23T08:16:44.858Z,98248.03
2023-05-23T08:19:36.177Z,98210.47
2023-05-23T08:22:21.529Z,98199.09
2023-05-23T08:25:07.675Z,98188.00
2023-05-23T08:27:55.348Z,98223.28
2023-05-23T08:31:09.886Z,98251.56
2023-05-23T08:33:56.178Z,98215.63
2023-05-23T08:36:41.501Z,98118.09
2023-05-23T08:39:29.365Z,98109.59
2023-05-23T08:42:34.535Z,98227.66
2023-05-23T08:45:19.928Z,98161.56
2023-05-23T08:48:08.979Z,98223.38
2023-05-23T08:50:59.993Z,98225.97
2023-05-23T08:53:48.129Z,98180.72
2023-05-23T08:56:34.136Z,98064.94
2023-05-23T08:59:20.427Z,98125.38
2023-05-23T09:02:10.915Z,98254.88
2023-05-23T09:04:56.607Z,98005.81
2023-05-23T09:07:47.323Z,98129.56
2023-05-23T09:10:32.959Z,98118.31
2023-05-23T09:13:18.818Z,98262.56
2023-05-23T09:16:07.088Z,98186.97
2023-05-23T09:18:59.122Z,98212.38
2023-05-23T09:21:47.299Z,98129.50
2023-05-23T09:24:40.041Z,97986.13
2023-05-23T09:27:27.201Z,98208.75
2023-05-23T09:30:13.706Z,98222.53
2023-05-23T09:33:02.920Z,98279.38
2023-05-23T09:35:51.020Z,98204.00
2023-05-23T09:38:40.788Z,98287.03
2023-05-23T09:41:30.462Z,98263.97
2023-05-23T09:44:23.191Z,98195.22
2023-05-23T09:47:08.882Z,98043.63
2023-05-23T09:49:54.532Z,98136.75
2023-05-23T09:52:40.111Z,98169.69
2023-05-23T09:55:25.847Z,98090.03
2023-05-23T09:58:12.747Z,98263.78
2023-05-23T10:01:00.302Z,98232.72
2023-05-23T10:03:51.214Z,98198.97
2023-05-23T10:06:48.868Z,98295.63
2023-05-23T10:09:37.824Z,98285.13
2023-05-23T10:12:32.078Z,98286.88
2023-05-23T10:15:19.272Z,98287.91
2023-05-23T10:18:18.249Z,98211.00
2023-05-23T10:21:09.582Z,98207.13
2023-05-23T10:23:55.260Z,98295.56
2023-05-23T10:26:41.041Z,98193.94
2023-05-23T10:29:27.138Z,98088.41
2023-05-23T10:32:13.535Z,98185.75
2023-05-23T10:35:28.555Z,98274.22
2023-05-23T10:38:52.715Z,98252.56
2023-05-23T10:41:51.444Z,98201.69
2023-05-23T10:44:37.256Z,98309.03
2023-05-23T10:47:28.524Z,98324.25
2023-05-23T10:50:16.714Z,98216.69
2023-05-23T10:53:04.391Z,98332.84
2023-05-23T10:55:49.616Z,98223.94
2023-05-23T10:58:37.079Z,98277.78
2023-05-23T11:01:23.456Z,98332.75
2023-05-23T11:04:12.456Z,98315.03
2023-05-23T11:06:58.382Z,98253.59
2023-05-23T11:10:08.397Z,98340.63
2023-05-23T11:13:06.313Z,98160.41
2023-05-23T11:15:51.955Z,98345.88
2023-05-23T11:18:37.275Z,98132.56
2023-05-23T11:21:22.940Z,98247.19
2023-05-23T11:24:10.204Z,98351.91
2023-05-23T11:26:58.867Z,98366.19
2023-05-23T11:29:44.493Z,98135.25
2023-05-23T11:32:31.664Z,98263.75
2023-05-23T11:35:18.130Z,98349.06
2023-05-23T11:38:07.121Z,98373.50
2023-05-23T11:40:52.637Z,98297.31
2023-05-23T11:43:38.118Z,98210.78
2023-05-23T11:46:23.374Z,98302.81
2023-05-23T11:49:12.169Z,98056.47
2023-05-23T11:52:02.535Z,98359.94
2023-05-23T11:54:48.228Z,98225.13
2023-05-23T11:57:33.806Z,98381.13
2023-05-23T12:00:19.739Z,98413.94
2023-05-23T12:03:07.113Z,98359.06
2023-05-23T12:05:52.636Z,98333.34
2023-05-23T12:08:38.300Z,98268.53
2023-05-23T12:11:25.288Z,98352.94
2023-05-23T12:14:17.052Z,98425.38
2023-05-23T12:17:05.928Z,98430.06
2023-05-23T12:19:56.693Z,98441.50
2023-05-23T12:22:42.479Z,98342.69
2023-05-23T12:25:28.195Z,98172.25
2023-05-23T12:28:13.699Z,98335.38
2023-05-23T12:30:59.101Z,98244.28
2023-05-23T12:33:46.036Z,98436.78
2023-05-23T12:36:31.990Z,98347.66
2023-05-23T12:39:24.836Z,98146.34
2023-05-23T12:42:10.654Z,98410.09
2023-05-23T12:44:55.882Z,98384.78
2023-05-23T12:47:41.421Z,98359.44
2023-05-23T12:50:26.770Z,98415.97
2023-05-23T12:53:16.540Z,98388.88
2023-05-23T12:56:01.788Z,98416.59
2023-05-23T12:58:47.278Z,98401.72
2023-05-23T13:01:34.774Z,98414.16
2023-05-23T13:04:20.614Z,98221.59
2023-05-23T13:07:05.835Z,98413.72
2023-05-23T13:09:51.112Z,98270.66
2023-05-23T13:12:36.722Z,98437.81
2023-05-23T13:15:22.226Z,98225.63
2023-05-23T13:18:08.881Z,98448.41
2023-05-23T13:20:54.244Z,98421.28
2023-05-23T13:23:39.541Z,98341.13
2023-05-23T13:26:25.248Z,98380.13
2023-05-23T13:29:10.665Z,98217.88
2023-05-23T13:31:56.411Z,98269.34
2023-05-23T13:34:42.236Z,98483.91
2023-05-23T13:37:27.835Z,98414.94
2023-05-23T13:40:17.659Z,98256.97
2023-05-23T13:43:03.059Z,98223.28
2023-05-23T13:45:48.196Z,98327.09
2023-05-23T13:48:33.951Z,98482.16
2023-05-23T13:51:22.915Z,98480.97
2023-05-23T13:54:10.318Z,98476.84
2023-05-23T13:57:00.498Z,98456.50
2023-05-23T13:59:47.720Z,98394.28
2023-05-23T14:02:33.577Z,98351.47
2023-05-23T14:05:20.609Z,98416.38
2023-05-23T14:08:07.025Z,98433.59
2023-05-23T14:10:52.642Z,98362.44
2023-05-23T14:13:40.868Z,98331.03
2023-05-23T14:16:28.319Z,98498.34
2023-05-23T14:19:13.829Z,98254.41
2023-05-23T14:22:00.699Z,98465.84
2023-05-23T14:24:46.696Z,98346.94
2023-05-23T14:27:36.252Z,98486.06
2023-05-23T14:30:21.623Z,98407.09
2023-05-23T14:33:08.561Z,98413.34
2023-05-23T14:35:56.045Z,98384.06
2023-05-23T14:38:41.667Z,98381.38
2023-05-23T14:41:27.245Z,98492.69
2023-05-23T14:44:13.319Z,98518.78
2023-05-23T14:46:58.706Z,98474.84
2023-05-23T14:49:43.960Z,98428.09
2023-05-23T14:52:29.115Z,98496.06
2023-05-23T14:55:14.657Z,98473.47
2023-05-23T14:58:00.037Z,98507.63
2023-05-23T15:00:45.679Z,98472.09
2023-05-23T15:03:31.333Z,97926.34
2023-05-23T15:06:16.751Z,98519.13
2023-05-23T15:09:02.485Z,98486.78
2023-05-23T15:11:47.859Z,98422.53
2023-05-23T15:14:33.489Z,98441.38
2023-05-23T15:17:19.101Z,98555.50
2023-05-23T15:20:07.053Z,98493.38
2023-05-23T15:22:52.840Z,98460.56
2023-05-23T15:25:49.556Z,98448.16
2023-05-23T15:28:35.318Z,98394.47
2023-05-23T15:31:20.592Z,98467.69
2023-05-23T15:34:06.062Z,98499.44
2023-05-23T15:36:51.564Z,98436.19
2023-05-23T15:39:37.141Z,98348.34
2023-05-23T15:42:22.399Z,98291.66
2023-05-23T15:45:08.479Z,98531.91
2023-05-23T15:47:53.852Z,98411.72
2023-05-23T15:50:45.157Z,98530.78
2023-05-23T15:53:40.092Z,98400.59
2023-05-23T15:56:29.281Z,98498.84
2023-05-23T15:59:15.050Z,98563.00
2023-05-23T16:02:00.697Z,98424.69
2023-05-23T16:04:45.859Z,97984.31
2023-05-23T16:07:31.534Z,98571.44
2023-05-23T16:10:17.285Z,98537.75
2023-05-23T16:13:02.732Z,98569.78
2023-05-23T16:15:48.370Z,98476.06
2023-05-23T16:18:34.141Z,98359.19
2023-05-23T16:21:19.496Z,98532.59
2023-05-23T16:24:05.776Z,98469.41
2023-05-23T16:26:51.589Z,98490.91
2023-05-23T16:29:36.966Z,98316.88
2023-05-23T16:32:22.522Z,98378.19
2023-05-23T16:35:08.430Z,98492.31
2023-05-23T16:37:53.664Z,98499.03
2023-05-23T16:40:40.475Z,98526.72
2023-05-23T16:43:33.550Z,98419.44
2023-05-23T16:46:22.417Z,98561.13
2023-05-23T16:49:10.292Z,98494.63
2023-05-23T16:52:00.280Z,98442.66
2023-05-23T16:54:52.703Z,98499.97
2023-05-23T16:57:41.707Z,98537.38
2023-05-23T17:00:28.706Z,98291.03
2023-05-23T17:03:16.693Z,98535.22
2023-05-23T17:06:06.758Z,98515.50
2023-05-23T17:08:53.750Z,98462.66
2023-05-23T17:11:48.380Z,98555.31
2023-05-23T17:14:34.606Z,98570.66
2023-05-23T17:17:22.460Z,98396.22
2023-05-23T17:20:10.190Z,98498.09
2023-05-23T17:22:58.667Z,98560.59
2023-05-23T17:25:47.248Z,98559.72
2023-05-23T17:28:36.457Z,98565.84
2023-05-23T17:31:22.188Z,98392.81
2023-05-23T17:34:10.940Z,98429.47
2023-05-23T17:36:57.942Z,98579.34
2023-05-23T17:39:54.606Z,98550.72
2023-05-23T17:42:45.756Z,98553.47
2023-05-23T17:45:32.341Z,98591.72
2023-05-23T17:48:31.173Z,98524.22
2023-05-23T17:51:26.740Z,98549.34
2023-05-23T17:54:12.479Z,98449.97
2023-05-23T17:57:01.283Z,98582.59
2023-05-23T17:59:47.716Z,98523.66
2023-05-23T18:02:45.397Z,98453.84
2023-05-23T18:05:39.660Z,98583.81
2023-05-23T18:08:28.976Z,98490.44
2023-05-23T18:11:30.647Z,98589.16
2023-05-23T18:14:16.280Z,98435.34
2023-05-23T18:17:03.669Z,98593.72
2023-05-23T18:20:02.078Z,98595.75
2023-05-23T18:22:57.087Z,98507.53
2023-05-23T18:25:44.892Z,98529.53
2023-05-23T18:28:30.415Z,98337.31
2023-05-23T18:31:15.993Z,98608.41
2023-05-23T18:34:01.615Z,98608.63
2023-05-23T18:36:46.990Z,98605.56
2023-05-23T18:39:35.008Z,98477.59
2023-05-23T18:42:21.709Z,98422.28
2023-05-23T18:45:09.384Z,98509.00
2023-05-23T18:47:54.736Z,98552.09
2023-05-23T18:50:40.454Z,98558.81
2023-05-23T18:53:25.995Z,98498.59
2023-05-23T18:56:11.461Z,98501.03
2023-05-23T18:58:56.714Z,98556.56
2023-05-23T19:01:42.755Z,98602.72
2023-05-23T19:04:28.279Z,98411.69
2023-05-23T19:07:14.187Z,98485.13
2023-05-23T19:09:59.867Z,98484.53
2023-05-23T19:12:45.479Z,98523.50
2023-05-23T19:15:30.717Z,98580.66
2023-05-23T19:18:20.272Z,98561.69
2023-05-23T19:21:05.978Z,98502.06
2023-05-23T19:23:51.705Z,98430.63
2023-05-23T19:26:37.212Z,98587.19
2023-05-23T19:29:22.882Z,98403.53
2023-05-23T19:32:08.541Z,98557.00
2023-05-23T19:34:54.198Z,98480.00
2023-05-23T19:37:39.367Z,98555.19
2023-05-23T19:40:24.798Z,98528.22
2023-05-23T19:43:10.372Z,98662.94
2023-05-23T19:45:56.199Z,98615.72
2023-05-23T19:48:41.939Z,98635.06
2023-05-23T19:51:27.297Z,98487.47
2023-05-23T19:54:12.945Z,98644.28
2023-05-23T19:56:58.378Z,98645.53
2023-05-23T19:59:44.123Z,98503.56
2023-05-23T20:02:29.787Z,98631.50
2023-05-23T20:05:15.231Z,98605.97
2023-05-23T20:08:00.816Z,98673.25
2023-05-23T20:10:46.471Z,98675.53
2023-05-23T20:13:32.219Z,98508.22
2023-05-23T20:16:18.026Z,98642.00
2023-05-23T20:19:03.466Z,98545.44
2023-05-23T20:21:49.040Z,98654.00
2023-05-23T20:24:34.574Z,98572.31
2023-05-23T20:27:20.393Z,98693.06
2023-05-23T20:30:06.883Z,98681.94
2023-05-23T20:32:52.393Z,98700.16
2023-05-23T20:35:38.120Z,98575.69
2023-05-23T20:38:23.534Z,98660.75
2023-05-23T20:41:11.600Z,98523.66
2023-05-23T20:43:57.261Z,98495.91
2023-05-23T20:46:42.891Z,98670.78
2023-05-23T20:49:28.363Z,98639.59
2023-05-23T20:52:14.911Z,98712.44
2023-05-23T20:55:00.538Z,98670.34
2023-05-23T20:57:47.007Z,98676.28
2023-05-23T21:00:32.456Z,98584.72
2023-05-23T21:03:18.582Z,98669.66
2023-05-23T21:06:04.314Z,98634.50
2023-05-23T21:08:49.869Z,98522.84
2023-05-23T21:11:35.005Z,98538.78
2023-05-23T21:14:20.759Z,98698.84
2023-05-23T21:17:06.288Z,98698.13
2023-05-23T21:19:51.862Z,98710.84
2023-05-23T21:22:37.772Z,98665.09
2023-05-23T21:25:23.193Z,98695.84
2023-05-23T21:28:08.711Z,98695.38
2023-05-23T21:30:54.542Z,98704.91
2023-05-23T21:33:40.024Z,98708.44
2023-05-23T21:36:25.706Z,98560.56
2023-05-23T21:39:11.194Z,98728.44
2023-05-23T21:41:56.410Z,98701.19
2023-05-23T21:44:41.655Z,98674.16
2023-05-23T21:47:27.195Z,98574.25
2023-05-23T21:50:12.296Z,98720.66
2023-05-23T21:52:57.475Z,98704.75
2023-05-23T21:55:42.921Z,98687.88
2023-05-23T21:58:28.340Z,98664.31
2023-05-23T22:01:14.151Z,98601.69
2023-05-23T22:03:59.707Z,98760.06
2023-05-23T22:06:45.031Z,98685.25
2023-05-23T22:09:30.780Z,98499.22
2023-05-23T22:12:16.053Z,98666.56
2023-05-23T22:15:01.488Z,98723.06
2023-05-23T22:17:46.819Z,98728.47
2023-05-23T22:20:32.553Z,98646.94
2023-05-23T22:23:18.032Z,98729.13
2023-05-23T22:26:04.191Z,98690.19
2023-05-23T22:28:49.952Z,98565.56
2023-05-23T22:31:35.450Z,98719.44
2023-05-23T22:34:20.719Z,98696.94
2023-05-23T22:37:05.878Z,98648.00
2023-05-23T22:39:51.057Z,98645.72
2023-05-23T22:42:36.756Z,98699.09
2023-05-23T22:45:22.167Z,98661.16
2023-05-23T22:48:07.371Z,98594.91
2023-05-23T22:50:53.126Z,98764.84
2023-05-23T22:53:38.548Z,98621.13
2023-05-23T22:56:23.762Z,98738.38
2023-05-23T22:59:09.445Z,98721.41
2023-05-23T23:01:55.016Z,98690.38
2023-05-23T23:04:40.411Z,98688.13
2023-05-23T23:07:25.855Z,98732.88
2023-05-23T23:10:11.265Z,98497.09
2023-05-23T23:12:56.841Z,98690.88
2023-05-23T23:15:42.146Z,98762.03
2023-05-23T23:18:27.394Z,98592.59
2023-05-23T23:21:13.776Z,98651.28
2023-05-23T23:23:59.329Z,98590.13
2023-05-23T23:26:44.715Z,98355.25
2023-05-23T23:29:30.043Z,98629.44
2023-05-23T23:32:15.524Z,98734.78
2023-05-23T23:35:01.210Z,98574.78
2023-05-23T23:37:46.486Z,98572.38
2023-05-23T23:40:32.032Z,98493.72
2023-05-23T23:43:17.563Z,98653.44
2023-05-23T23:46:03.101Z,98718.34
2023-05-23T23:48:48.439Z,98581.91
2023-05-23T23:51:34.049Z,98655.06
2023-05-23T23:54:20.110Z,98745.94
2023-05-23T23:57:05.784Z,98616.22
2023-05-23T23:59:50.980Z,98685.44
